Time;durP1;ratioP1;P1;durP2;ratioP2;P2;SDS_P1;SDS_P2;PMS_P1;PMS_P2;Temp;Humidity;BMP_temperature;BMP_pressure;BME280_temperature;BME280_humidity;BME280_pressure;Samples;Min_cycle;Max_cycle;Signal;HPM_P1;HPM_P2
2023/09/26 00:00:23;;;;;;;3.60;2.45;;;;;;;23.97;50.46;101696.88;5018946;28;20050;-58
2023/09/26 00:02:52;;;;;;;4.35;2.83;;;;;;;23.97;50.32;101696.88;5013984;28;20484;-58
2023/09/26 00:05:22;;;;;;;3.60;2.22;;;;;;;23.95;50.29;101697.03;5015779;28;20046;-58
2023/09/26 00:07:51;;;;;;;3.47;2.10;;;;;;;23.95;50.34;101702.44;5018096;28;20542;-58
2023/09/26 00:10:19;;;;;;;4.10;2.10;;;;;;;23.95;49.99;101699.72;5019526;28;20056;-62
2023/09/26 00:12:48;;;;;;;3.40;2.20;;;;;;;23.94;50.15;101698.00;5017764;28;20042;-63
2023/09/26 00:15:15;;;;;;;3.70;2.33;;;;;;;23.95;50.08;101707.00;5017623;28;20042;-63
2023/09/26 00:17:43;;;;;;;5.63;3.08;;;;;;;23.96;50.08;101701.44;5017842;28;20061;-63
2023/09/26 00:20:18;;;;;;;5.35;2.30;;;;;;;23.94;49.92;101695.28;5020618;28;20058;-58
2023/09/26 00:22:46;;;;;;;3.78;2.15;;;;;;;23.95;50.16;101701.59;5018182;28;20049;-58
2023/09/26 00:25:14;;;;;;;4.53;2.00;;;;;;;23.94;50.00;101695.28;5017581;28;20046;-57
2023/09/26 00:27:42;;;;;;;3.42;2.33;;;;;;;23.94;50.05;101703.41;5018736;28;20049;-58
2023/09/26 00:30:10;;;;;;;3.45;2.28;;;;;;;23.94;50.30;101703.41;5020351;28;20050;-58
2023/09/26 00:32:38;;;;;;;4.65;2.40;;;;;;;23.93;50.25;101693.59;5041060;28;20049;-58
2023/09/26 00:35:10;;;;;;;4.80;1.90;;;;;;;23.94;49.91;101695.28;5024999;28;20046;-58
2023/09/26 00:37:39;;;;;;;4.22;2.08;;;;;;;23.93;50.21;101689.03;5027697;28;20507;-58
2023/09/26 00:40:12;;;;;;;4.20;2.17;;;;;;;23.94;50.21;101692.59;5026594;28;20052;-62
2023/09/26 00:42:40;;;;;;;2.97;1.85;;;;;;;23.93;49.95;101702.56;5022976;28;20054;-63
2023/09/26 00:45:07;;;;;;;4.22;2.17;;;;;;;23.93;50.06;101701.72;5024519;28;20408;-62
2023/09/26 00:47:35;;;;;;;3.60;2.05;;;;;;;23.93;50.21;101702.56;5027473;28;20053;-62
2023/09/26 00:50:04;;;;;;;3.40;1.77;;;;;;;23.93;49.95;101702.56;5026722;28;20050;-62
2023/09/26 00:52:32;;;;;;;3.40;2.17;;;;;;;23.93;49.89;101699.84;5024283;28;20046;-62
2023/09/26 00:55:02;;;;;;;3.22;1.90;;;;;;;23.92;50.23;101695.44;5026520;28;20046;-63
2023/09/26 00:57:34;;;;;;;3.75;2.00;;;;;;;23.92;50.04;101700.84;5025421;28;20057;-63
2023/09/26 01:00:03;;;;;;;3.40;1.92;;;;;;;23.92;50.12;101694.59;5035461;28;20049;-58
2023/09/26 01:02:32;;;;;;;2.90;2.10;;;;;;;23.93;49.97;101701.72;5022785;28;20054;-58
2023/09/26 01:04:59;;;;;;;5.38;1.90;;;;;;;23.93;50.21;101701.72;5031523;28;20073;-58
2023/09/26 01:07:27;;;;;;;4.55;2.00;;;;;;;23.92;50.00;101689.19;5026504;28;20061;-58
2023/09/26 01:09:55;;;;;;;4.13;2.08;;;;;;;23.93;50.00;101696.31;5027195;28;20045;-62
2023/09/26 01:12:23;;;;;;;3.67;2.13;;;;;;;23.92;49.96;101700.84;5024068;28;20049;-62
2023/09/26 01:14:50;;;;;;;4.53;2.00;;;;;;;23.92;50.03;101705.41;5027460;28;20057;-63
2023/09/26 01:17:18;;;;;;;3.95;1.70;;;;;;;23.92;50.34;101700.00;5025609;28;20514;-63
2023/09/26 01:19:45;;;;;;;3.30;1.88;;;;;;;23.93;49.97;101699.00;5021061;28;20049;-58
2023/09/26 01:22:16;;;;;;;2.75;1.75;;;;;;;23.92;49.86;101697.31;5024201;28;20045;-58
2023/09/26 01:24:44;;;;;;;2.90;1.80;;;;;;;23.90;50.09;101692.06;5025782;28;20049;-58
2023/09/26 01:27:12;;;;;;;3.47;1.77;;;;;;;23.91;50.41;101699.16;5025245;28;20052;-58
2023/09/26 01:29:39;;;;;;;3.67;2.28;;;;;;;23.91;49.98;101701.00;5026210;28;20073;-58
2023/09/26 01:32:06;;;;;;;2.80;1.60;;;;;;;23.92;49.92;101702.72;5024622;28;20049;-58
2023/09/26 01:34:34;;;;;;;2.95;1.80;;;;;;;23.90;50.22;101700.16;5027639;28;20049;-58
2023/09/26 01:37:02;;;;;;;3.17;1.60;;;;;;;23.91;50.22;101698.31;5040378;28;20049;-58
2023/09/26 01:39:30;;;;;;;2.78;1.60;;;;;;;23.90;49.90;101699.28;5025894;28;20056;-58
2023/09/26 01:41:57;;;;;;;3.13;1.83;;;;;;;23.91;50.37;101698.31;5023177;28;20058;-58
2023/09/26 01:44:25;;;;;;;3.05;2.05;;;;;;;23.90;50.02;101691.16;5027452;28;20045;-58
2023/09/26 01:46:53;;;;;;;2.90;1.92;;;;;;;23.90;50.03;101688.47;5024635;28;20049;-58
2023/09/26 01:49:21;;;;;;;3.13;1.60;;;;;;;23.89;50.22;101684.91;5025285;28;20423;-58
2023/09/26 01:51:49;;;;;;;2.80;1.60;;;;;;;23.90;49.98;101693.88;5023040;28;20065;-58
2023/09/26 01:54:17;;;;;;;3.13;1.88;;;;;;;23.90;50.00;101689.34;5027315;28;20049;-58
2023/09/26 01:56:44;;;;;;;4.80;1.90;;;;;;;23.90;50.06;101683.06;5025927;28;20049;-58
2023/09/26 01:59:11;;;;;;;3.42;1.30;;;;;;;23.90;49.97;101688.47;5040022;28;20049;-62
2023/09/26 02:01:39;;;;;;;5.30;2.13;;;;;;;23.90;50.19;101688.47;5022832;28;20412;-62
2023/09/26 02:04:06;;;;;;;4.75;1.77;;;;;;;23.89;50.26;101690.31;5026897;28;20064;-63
2023/09/26 02:06:34;;;;;;;4.95;2.25;;;;;;;23.90;49.86;101688.47;5025387;28;20045;-62
2023/09/26 02:09:01;;;;;;;2.90;1.92;;;;;;;23.89;50.24;101684.06;5024905;28;20042;-58
2023/09/26 02:11:29;;;;;;;3.28;2.00;;;;;;;23.89;50.29;101689.47;5024037;28;20046;-58
2023/09/26 02:13:57;;;;;;;3.17;1.70;;;;;;;23.89;50.14;101690.31;5025184;28;20049;-58
2023/09/26 02:16:24;;;;;;;2.83;1.80;;;;;;;23.90;50.06;101685.75;5024275;28;20061;-58
2023/09/26 02:18:52;;;;;;;2.70;1.60;;;;;;;23.88;49.94;101691.31;5019058;28;20064;-62
2023/09/26 02:21:20;;;;;;;2.40;1.42;;;;;;;23.89;50.38;101694.88;5023943;28;20049;-63
2023/09/26 02:23:48;;;;;;;3.85;2.00;;;;;;;23.89;50.09;101694.88;5026790;28;20057;-63
2023/09/26 02:26:19;;;;;;;2.72;1.60;;;;;;;23.89;50.57;101693.03;5023786;28;20050;-62
2023/09/26 02:28:46;;;;;;;3.42;2.00;;;;;;;23.89;50.24;101693.03;5027011;28;20057;-62
2023/09/26 02:31:15;;;;;;;4.47;2.28;;;;;;;23.90;50.51;101693.88;5028229;28;20041;-63
2023/09/26 02:33:43;;;;;;;3.85;1.48;;;;;;;23.89;50.38;101692.16;5028569;28;20053;-62
2023/09/26 02:36:10;;;;;;;4.43;1.90;;;;;;;23.89;50.29;101684.06;5029390;28;20493;-63
2023/09/26 02:38:38;;;;;;;3.35;1.98;;;;;;;23.89;50.29;101689.47;5027166;28;20058;-62
2023/09/26 02:41:05;;;;;;;5.30;1.65;;;;;;;23.89;50.14;101686.75;5028691;28;20042;-63
2023/09/26 02:43:33;;;;;;;3.60;1.90;;;;;;;23.89;49.89;101684.06;5030328;28;20374;-63
2023/09/26 02:46:01;;;;;;;3.03;1.83;;;;;;;23.89;50.12;101684.06;5029397;28;20034;-63
2023/09/26 02:48:29;;;;;;;3.30;1.70;;;;;;;23.88;50.26;101683.22;5027673;28;20508;-62
2023/09/26 02:51:05;;;;;;;4.03;1.73;;;;;;;23.88;50.14;101676.94;5028331;28;20049;-63
2023/09/26 02:53:33;;;;;;;2.40;1.58;;;;;;;23.87;50.04;101681.50;5029116;28;20045;-63
2023/09/26 02:56:00;;;;;;;3.25;2.00;;;;;;;23.87;49.91;101673.41;5022810;28;20042;-63
2023/09/26 02:58:28;;;;;;;3.05;1.83;;;;;;;23.87;50.20;101667.97;5025383;28;20064;-62
2023/09/26 03:00:55;;;;;;;3.40;2.33;;;;;;;23.87;49.85;101673.41;5028137;28;20057;-62
2023/09/26 03:03:23;;;;;;;3.85;1.98;;;;;;;23.86;50.04;101669.00;5027384;28;20053;-62
2023/09/26 03:05:53;;;;;;;2.95;2.00;;;;;;;23.87;50.06;101667.13;5022282;28;20072;-63
2023/09/26 03:08:22;;;;;;;6.50;1.70;;;;;;;23.87;50.15;101669.84;5024601;28;20057;-62
2023/09/26 03:10:51;;;;;;;3.30;2.05;;;;;;;23.86;50.31;101671.69;5022891;28;20049;-62
2023/09/26 03:13:18;;;;;;;2.50;1.55;;;;;;;23.86;49.89;101678.94;5026857;28;20057;-62
2023/09/26 03:15:55;;;;;;;5.65;1.88;;;;;;;23.86;50.29;101684.34;5027049;28;20057;-62
2023/09/26 03:18:23;;;;;;;3.08;1.70;;;;;;;23.85;50.24;101679.94;5025641;28;20057;-60
2023/09/26 03:20:50;;;;;;;2.97;1.60;;;;;;;23.86;49.97;101685.22;5029445;28;20056;-58
2023/09/26 03:23:20;;;;;;;3.17;2.08;;;;;;;23.86;50.19;101684.34;5027262;28;20531;-58
2023/09/26 03:25:48;;;;;;;3.13;1.80;;;;;;;23.86;50.13;101681.63;5025349;28;20058;-58
2023/09/26 03:28:16;;;;;;;3.20;1.67;;;;;;;23.85;49.82;101671.81;5027277;28;20042;-58
2023/09/26 03:30:46;;;;;;;2.72;1.63;;;;;;;23.87;50.24;101672.53;5029245;28;20057;-63
2023/09/26 03:33:14;;;;;;;3.38;1.67;;;;;;;23.86;50.29;101678.94;5023258;28;20053;-62
2023/09/26 03:35:41;;;;;;;2.47;1.40;;;;;;;23.84;50.18;101670.97;5025874;28;20050;-63
2023/09/26 03:38:09;;;;;;;3.30;1.92;;;;;;;23.85;50.12;101672.66;5027228;28;20049;-63
2023/09/26 03:40:37;;;;;;;2.75;1.63;;;;;;;23.85;50.22;101663.69;5026780;28;20049;-58
2023/09/26 03:43:04;;;;;;;2.65;1.58;;;;;;;23.84;50.38;101660.16;5026952;28;20050;-58
2023/09/26 03:45:31;;;;;;;3.10;1.63;;;;;;;23.85;50.31;101666.41;5025523;28;20404;-58
2023/09/26 03:47:59;;;;;;;2.90;1.63;;;;;;;23.85;50.31;101661.00;5027250;28;20045;-58
2023/09/26 03:50:27;;;;;;;2.88;1.65;;;;;;;23.84;49.82;101670.13;5028702;28;20046;-62
2023/09/26 03:52:54;;;;;;;2.90;1.85;;;;;;;23.84;49.82;101670.13;5026493;28;20041;-63
2023/09/26 03:55:23;;;;;;;3.65;2.03;;;;;;;23.84;50.18;101665.56;5025317;28;20045;-63
2023/09/26 03:57:50;;;;;;;3.92;1.75;;;;;;;23.83;50.30;101666.56;5027398;28;20042;-63
2023/09/26 04:00:18;;;;;;;3.47;1.92;;;;;;;23.84;50.24;101664.72;5028799;28;20041;-62
2023/09/26 04:02:47;;;;;;;3.25;1.67;;;;;;;23.82;50.07;101672.97;5027054;28;20046;-63
2023/09/26 04:05:14;;;;;;;2.92;2.00;;;;;;;23.83;49.86;101666.56;5025297;28;20046;-63
2023/09/26 04:07:42;;;;;;;2.40;1.65;;;;;;;23.84;50.01;101670.13;5027206;28;20042;-63
2023/09/26 04:10:09;;;;;;;2.97;1.65;;;;;;;23.85;50.02;101677.22;5028490;28;20439;-62
2023/09/26 04:12:37;;;;;;;2.97;1.33;;;;;;;23.83;50.09;101676.53;5027876;28;20049;-58
2023/09/26 04:15:05;;;;;;;2.70;1.70;;;;;;;23.83;50.29;101679.22;5025017;28;20050;-58
2023/09/26 04:17:32;;;;;;;5.35;1.65;;;;;;;23.83;50.06;101684.63;5027204;28;20396;-58
2023/09/26 04:20:00;;;;;;;2.78;1.50;;;;;;;23.82;50.06;101683.78;5028406;28;20407;-63
2023/09/26 04:22:29;;;;;;;4.40;1.70;;;;;;;23.82;50.07;101677.50;5028740;28;20053;-63
2023/09/26 04:24:56;;;;;;;3.08;1.92;;;;;;;23.82;50.20;101670.28;5024497;28;20408;-63
2023/09/26 04:27:25;;;;;;;3.28;1.60;;;;;;;23.83;50.19;101671.13;5027377;28;20041;-63
2023/09/26 04:29:53;;;;;;;3.38;1.52;;;;;;;23.82;50.06;101675.69;5027588;28;20046;-58
2023/09/26 04:32:20;;;;;;;2.67;1.60;;;;;;;23.82;50.44;101678.38;5027909;28;20049;-58
2023/09/26 04:34:48;;;;;;;2.72;1.60;;;;;;;23.82;50.42;101681.09;5028947;28;20109;-58
2023/09/26 04:37:16;;;;;;;2.67;1.55;;;;;;;23.81;50.44;101665.84;5027518;28;20046;-58
2023/09/26 04:39:43;;;;;;;2.55;1.50;;;;;;;23.82;50.35;101662.16;5027749;28;20049;-62
2023/09/26 04:42:11;;;;;;;2.72;1.75;;;;;;;23.81;50.03;101668.53;5025842;28;20068;-62
2023/09/26 04:44:38;;;;;;;3.45;1.85;;;;;;;23.81;50.17;101667.69;5019890;28;20376;-63
2023/09/26 04:47:06;;;;;;;3.05;1.90;;;;;;;23.82;50.02;101677.50;5024934;28;20048;-63
2023/09/26 04:49:36;;;;;;;2.83;1.63;;;;;;;23.82;50.03;101674.78;5023761;28;20540;-62
2023/09/26 04:52:03;;;;;;;2.72;1.48;;;;;;;23.81;50.03;101670.38;5020595;28;20045;-64
2023/09/26 04:54:31;;;;;;;3.00;1.70;;;;;;;23.81;50.44;101673.09;5024279;28;20049;-63
2023/09/26 04:56:58;;;;;;;2.53;1.52;;;;;;;23.81;50.07;101676.66;5027947;28;20045;-63
2023/09/26 04:59:27;;;;;;;2.95;1.77;;;;;;;23.80;50.26;101674.09;5026505;28;20064;-62
2023/09/26 05:01:54;;;;;;;2.20;1.40;;;;;;;23.80;50.15;101677.66;5020944;28;20041;-63
2023/09/26 05:04:22;;;;;;;2.70;1.40;;;;;;;23.81;50.16;101675.78;5024145;28;20054;-63
2023/09/26 05:06:49;;;;;;;4.57;1.77;;;;;;;23.80;50.18;101680.34;5027319;28;20404;-62
2023/09/26 05:09:17;;;;;;;2.80;1.70;;;;;;;23.80;50.23;101677.66;5026266;28;20053;-62
2023/09/26 05:11:44;;;;;;;2.35;1.20;;;;;;;23.81;49.95;101681.19;5026900;28;20057;-63
2023/09/26 05:14:12;;;;;;;4.45;1.95;;;;;;;23.79;50.28;101684.06;5023894;28;20042;-63
2023/09/26 05:16:39;;;;;;;3.20;1.98;;;;;;;23.80;50.38;101687.63;5027143;28;20056;-63
2023/09/26 05:19:07;;;;;;;2.67;1.60;;;;;;;23.80;50.34;101695.72;5026400;28;20057;-62
2023/09/26 05:21:34;;;;;;;3.72;1.52;;;;;;;23.81;50.06;101681.19;5027109;28;20491;-63
2023/09/26 05:24:01;;;;;;;2.92;1.65;;;;;;;23.79;50.25;101675.94;5023928;28;20046;-63
2023/09/26 05:26:29;;;;;;;2.90;1.58;;;;;;;23.79;50.36;101672.41;5027129;28;20052;-63
2023/09/26 05:28:59;;;;;;;2.85;1.50;;;;;;;23.79;50.26;101677.81;5026164;28;20422;-58
2023/09/26 05:31:31;;;;;;;2.80;1.98;;;;;;;23.78;50.19;101676.94;5020418;28;20045;-58
2023/09/26 05:33:59;;;;;;;2.75;1.70;;;;;;;23.78;50.40;101681.47;5023900;28;20052;-58
2023/09/26 05:36:26;;;;;;;2.40;1.33;;;;;;;23.78;49.94;101684.19;5027216;28;20053;-58
2023/09/26 05:38:54;;;;;;;3.17;1.50;;;;;;;23.77;49.92;101672.50;5026088;28;20057;-58
2023/09/26 05:41:21;;;;;;;2.15;1.30;;;;;;;23.78;49.98;101670.66;5026402;28;20480;-58
2023/09/26 05:43:49;;;;;;;2.75;1.60;;;;;;;23.79;50.18;101675.09;5023979;28;20046;-58
2023/09/26 05:46:17;;;;;;;2.72;1.83;;;;;;;23.78;50.19;101674.25;5027163;28;20052;-58
2023/09/26 05:48:44;;;;;;;3.75;1.55;;;;;;;23.77;50.22;101677.94;5026189;28;20045;-58
2023/09/26 05:51:12;;;;;;;2.92;1.73;;;;;;;23.78;49.99;101670.66;5025726;28;20041;-58
2023/09/26 05:53:39;;;;;;;2.72;1.60;;;;;;;23.78;50.34;101665.25;5023423;28;20409;-58
2023/09/26 05:56:07;;;;;;;2.67;1.50;;;;;;;23.77;50.15;101669.81;5026927;28;20048;-58
2023/09/26 05:58:35;;;;;;;3.08;1.60;;;;;;;23.77;50.17;101672.50;5025616;28;20395;-58
2023/09/26 06:01:08;;;;;;;3.47;1.98;;;;;;;23.77;50.10;101677.06;5025461;28;20488;-58
2023/09/26 06:03:36;;;;;;;2.35;1.45;;;;;;;23.77;50.31;101672.50;5023563;28;20072;-58
2023/09/26 06:06:04;;;;;;;2.55;1.52;;;;;;;23.78;49.99;101678.78;5030589;28;20041;-58
2023/09/26 06:08:33;;;;;;;2.95;1.73;;;;;;;23.78;50.18;101681.47;5029533;28;20045;-62
2023/09/26 06:11:02;;;;;;;2.38;1.60;;;;;;;23.78;50.09;101689.59;5027905;28;20049;-63
2023/09/26 06:13:30;;;;;;;3.95;1.73;;;;;;;23.78;50.26;101682.34;5028780;28;20053;-63
2023/09/26 06:15:57;;;;;;;2.58;1.40;;;;;;;23.78;49.96;101678.78;5030966;28;20056;-63
2023/09/26 06:18:25;;;;;;;3.45;1.70;;;;;;;23.78;50.01;101693.19;5029810;28;20049;-59
2023/09/26 06:20:53;;;;;;;3.40;1.80;;;;;;;23.79;50.10;101703.00;5042296;28;20408;-58
2023/09/26 06:23:21;;;;;;;3.58;1.75;;;;;;;23.78;50.10;101706.69;5028875;28;20049;-58
2023/09/26 06:26:00;;;;;;;3.05;1.52;;;;;;;23.79;50.21;101697.59;5030354;28;20408;-58
2023/09/26 06:28:28;;;;;;;2.97;1.77;;;;;;;23.79;50.32;101680.50;5023795;28;20041;-58
2023/09/26 06:30:56;;;;;;;2.90;1.90;;;;;;;23.80;50.36;101684.91;5026749;28;20485;-58
2023/09/26 06:33:23;;;;;;;3.25;1.85;;;;;;;23.78;50.38;101676.94;5018597;28;20041;-58
2023/09/26 06:35:51;;;;;;;2.13;1.40;;;;;;;23.80;50.38;101685.75;5029098;28;20041;-58
2023/09/26 06:38:19;;;;;;;3.03;1.63;;;;;;;23.80;50.25;101680.34;5029626;28;20053;-63
2023/09/26 06:40:47;;;;;;;2.58;1.35;;;;;;;23.81;50.51;101671.25;5022659;28;20046;-64
2023/09/26 06:43:14;;;;;;;2.92;1.77;;;;;;;23.81;50.23;101670.38;5019023;28;20057;-64
2023/09/26 06:45:41;;;;;;;2.75;1.85;;;;;;;23.82;50.26;101674.78;5027661;28;20513;-64
2023/09/26 06:48:09;;;;;;;2.85;1.70;;;;;;;23.83;50.46;101663.00;5029547;28;20046;-64
2023/09/26 06:50:43;;;;;;;3.28;1.92;;;;;;;23.83;50.34;101663.00;5026650;28;20057;-57
2023/09/26 06:53:10;;;;;;;4.10;1.90;;;;;;;23.86;50.80;101660.88;5023023;28;20495;-58
2023/09/26 06:55:39;;;;;;;3.80;1.95;;;;;;;23.90;50.82;101665.00;5028359;28;20049;-58
2023/09/26 06:58:07;;;;;;;2.45;1.13;;;;;;;23.93;50.83;101669.25;5028000;28;20053;-60
2023/09/26 07:00:35;;;;;;;4.93;1.83;;;;;;;23.97;50.60;101677.94;5026825;28;20049;-59
2023/09/26 07:03:04;;;;;;;2.55;1.58;;;;;;;24.00;50.76;101683.94;5029374;28;20490;-61
2023/09/26 07:05:32;;;;;;;4.32;2.03;;;;;;;24.03;50.89;101691.75;5028077;28;20061;-65
2023/09/26 07:07:59;;;;;;;4.97;2.50;;;;;;;24.04;50.24;101679.09;5026895;28;20049;-64
2023/09/26 07:10:27;;;;;;;3.63;1.90;;;;;;;24.05;50.34;101688.91;5022894;28;20054;-60
2023/09/26 07:12:54;;;;;;;4.55;2.67;;;;;;;24.07;50.39;101703.16;5025483;28;20388;-60
2023/09/26 07:15:25;;;;;;;5.72;2.25;;;;;;;24.07;50.10;101701.31;5026833;28;20049;-59
2023/09/26 07:17:52;;;;;;;3.75;2.15;;;;;;;24.08;49.82;101702.16;5023303;28;20503;-59
2023/09/26 07:20:21;;;;;;;3.63;1.90;;;;;;;24.09;50.00;101703.84;5026997;28;20046;-60
2023/09/26 07:22:49;;;;;;;4.53;2.47;;;;;;;24.09;49.83;101701.16;5028909;28;20053;-59
2023/09/26 07:25:17;;;;;;;3.60;1.90;;;;;;;24.09;49.38;101696.59;5027693;28;20053;-60
2023/09/26 07:27:44;;;;;;;4.18;1.73;;;;;;;24.09;49.46;101693.88;5025596;28;20057;-59
2023/09/26 07:30:14;;;;;;;4.18;2.10;;;;;;;24.09;49.46;101691.19;5027007;28;20404;-62
2023/09/26 07:32:42;;;;;;;2.95;1.67;;;;;;;24.10;49.74;101692.03;5021923;28;20539;-62
2023/09/26 07:35:09;;;;;;;3.45;1.83;;;;;;;24.12;50.05;101690.06;5027178;28;20396;-63
2023/09/26 07:37:37;;;;;;;4.13;2.15;;;;;;;24.12;49.67;101704.44;5025074;28;20054;-60
2023/09/26 07:40:08;;;;;;;3.95;2.05;;;;;;;24.08;49.51;101694.88;5026220;28;20046;-59
2023/09/26 07:42:36;;;;;;;4.20;2.23;;;;;;;24.04;49.40;101693.47;5028327;28;20049;-59
2023/09/26 07:45:04;;;;;;;6.00;2.85;;;;;;;24.03;49.34;101691.75;5024800;28;20057;-59
2023/09/26 07:47:32;;;;;;;3.63;2.63;;;;;;;24.05;48.87;101697.03;5020276;28;20045;-60
2023/09/26 07:50:01;;;;;;;3.53;2.35;;;;;;;24.07;49.06;101709.41;5024656;28;20045;-60
2023/09/26 07:52:28;;;;;;;3.13;1.95;;;;;;;24.08;48.93;101702.16;5027658;28;20400;-61
2023/09/26 07:54:56;;;;;;;3.92;2.00;;;;;;;24.10;49.08;101694.72;5021269;28;20049;-61
2023/09/26 07:57:24;;;;;;;4.18;2.13;;;;;;;24.12;48.98;101700.88;5024526;28;20042;-60
2023/09/26 07:59:51;;;;;;;3.17;1.70;;;;;;;24.13;49.28;101705.28;5027790;28;20049;-62
2023/09/26 08:02:19;;;;;;;3.72;2.20;;;;;;;24.14;48.89;101698.88;5026987;28;20049;-63
2023/09/26 08:04:46;;;;;;;3.63;1.85;;;;;;;24.14;49.04;101704.28;5027862;28;20052;-56
2023/09/26 08:07:14;;;;;;;4.35;1.77;;;;;;;24.14;48.73;101697.00;5018609;28;20050;-59
2023/09/26 08:09:41;;;;;;;3.88;2.08;;;;;;;24.11;48.74;101694.63;5027365;28;20049;-61
2023/09/26 08:12:09;;;;;;;3.97;2.00;;;;;;;24.11;49.01;101693.75;5027319;28;20057;-61
2023/09/26 08:14:36;;;;;;;2.97;1.80;;;;;;;24.09;49.03;101703.84;5020663;28;20041;-62
2023/09/26 08:17:04;;;;;;;4.60;2.40;;;;;;;24.07;49.14;101701.31;5022080;28;20061;-62
2023/09/26 08:19:32;;;;;;;3.63;2.28;;;;;;;24.06;49.21;101702.28;5027461;28;20037;-59
2023/09/26 08:22:00;;;;;;;3.38;2.08;;;;;;;24.05;49.16;101711.41;5026398;28;20057;-59
2023/09/26 08:24:28;;;;;;;4.53;2.08;;;;;;;24.05;49.32;101710.53;5020777;28;20044;-59
2023/09/26 08:26:55;;;;;;;4.25;1.83;;;;;;;24.04;48.84;101707.00;5023872;28;20056;-59
2023/09/26 08:29:23;;;;;;;4.85;2.80;;;;;;;24.03;48.69;101707.16;5027196;28;20053;-61
2023/09/26 08:31:51;;;;;;;4.40;2.15;;;;;;;24.03;49.22;101707.16;5026518;28;20068;-62
2023/09/26 08:34:18;;;;;;;3.05;1.77;;;;;;;24.01;48.95;101704.56;5021422;28;20404;-62
2023/09/26 08:36:46;;;;;;;4.45;2.03;;;;;;;24.01;48.88;101709.97;5023848;28;20072;-62
2023/09/26 08:39:14;;;;;;;2.58;1.70;;;;;;;24.01;49.05;101704.56;5027413;28;20056;-59
2023/09/26 08:41:47;;;;;;;5.10;2.28;;;;;;;24.01;49.36;101709.13;5026046;28;20056;-59
2023/09/26 08:44:18;;;;;;;4.25;1.88;;;;;;;24.01;48.95;101701.84;5025995;28;20052;-59
2023/09/26 08:46:45;;;;;;;5.32;1.85;;;;;;;24.00;48.97;101697.44;5024341;28;20053;-59
2023/09/26 08:49:13;;;;;;;5.63;2.33;;;;;;;24.00;48.96;101697.44;5027413;28;20044;-61
2023/09/26 08:51:41;;;;;;;3.65;1.83;;;;;;;24.00;48.91;101697.44;5025844;28;20053;-62
2023/09/26 08:54:09;;;;;;;4.07;2.05;;;;;;;24.00;48.98;101693.91;5024365;28;20061;-61
2023/09/26 08:56:37;;;;;;;3.65;2.00;;;;;;;23.99;49.18;101690.34;5024705;28;20056;-61
2023/09/26 08:59:09;;;;;;;5.03;1.90;;;;;;;23.99;49.20;101695.75;5027531;28;20388;-61
2023/09/26 09:01:36;;;;;;;3.28;1.70;;;;;;;23.99;49.17;101692.19;5026257;28;20046;-67
2023/09/26 09:04:04;;;;;;;4.15;1.75;;;;;;;23.99;49.51;101703.88;5024764;28;20057;-66
2023/09/26 09:06:31;;;;;;;4.10;2.05;;;;;;;23.98;49.38;101691.31;5025133;28;20053;-67
2023/09/26 09:09:13;;;;;;;5.78;1.98;;;;;;;23.99;49.30;101703.00;5027262;28;20049;-58
2023/09/26 09:11:40;;;;;;;3.25;2.08;;;;;;;24.00;49.64;101699.31;5020086;28;20053;-58
2023/09/26 09:14:08;;;;;;;3.63;2.03;;;;;;;24.01;49.57;101691.03;5023613;28;20050;-58
2023/09/26 09:16:36;;;;;;;3.35;1.70;;;;;;;24.01;49.44;101699.16;5027018;28;20045;-59
2023/09/26 09:19:06;;;;;;;4.00;2.08;;;;;;;24.00;49.67;101700.16;5026228;28;20064;-66
2023/09/26 09:21:34;;;;;;;3.58;1.92;;;;;;;23.99;49.40;101695.75;5026302;28;20052;-66
2023/09/26 09:24:06;;;;;;;4.95;2.00;;;;;;;24.01;49.41;101684.78;5023710;28;20041;-66
2023/09/26 09:26:35;;;;;;;3.20;1.75;;;;;;;24.02;49.77;101691.88;5017293;28;20053;-66
2023/09/26 09:29:17;;;;;;;5.38;1.85;;;;;;;24.01;49.93;101687.47;5025828;28;20057;-66
2023/09/26 09:31:45;;;;;;;2.72;1.65;;;;;;;24.01;49.91;101682.91;5028626;28;20054;-66
2023/09/26 09:34:15;;;;;;;3.20;1.90;;;;;;;24.00;49.77;101675.81;5025932;28;20060;-66
2023/09/26 09:36:44;;;;;;;4.03;2.33;;;;;;;24.01;49.69;101679.38;5026388;28;20052;-66
2023/09/26 09:39:12;;;;;;;3.28;1.73;;;;;;;24.01;49.50;101672.09;5026641;28;20058;-66
2023/09/26 09:41:40;;;;;;;3.53;1.83;;;;;;;24.03;49.82;101671.97;5026711;28;20053;-66
2023/09/26 09:44:07;;;;;;;3.28;1.90;;;;;;;24.02;50.01;101664.84;5030371;28;20052;-66
2023/09/26 09:46:38;;;;;;;6.50;2.90;;;;;;;23.99;49.95;101665.16;5029476;28;20053;-66
2023/09/26 09:49:12;;;;;;;5.00;3.17;;;;;;;23.92;49.58;101663.00;5026967;28;20420;-59
2023/09/26 09:51:42;;;;;;;7.03;3.63;;;;;;;23.88;49.79;101661.56;5027575;28;20054;-57
2023/09/26 09:54:17;;;;;;;4.93;2.97;;;;;;;23.87;49.82;101661.72;5030344;28;20049;-59
2023/09/26 09:56:52;;;;;;;5.22;3.42;;;;;;;23.88;49.95;101664.28;5029228;28;20052;-59
2023/09/26 09:59:25;;;;;;;4.63;2.72;;;;;;;23.88;50.30;101660.72;5022986;28;20046;-62
2023/09/26 10:01:54;;;;;;;8.35;3.33;;;;;;;23.89;49.99;101657.00;5019875;28;20042;-63
2023/09/26 10:04:23;;;;;;;5.10;2.90;;;;;;;23.90;50.35;101656.00;5028141;28;20057;-63
2023/09/26 10:06:53;;;;;;;4.43;2.47;;;;;;;23.91;50.06;101660.44;5029873;28;20054;-63
2023/09/26 10:09:22;;;;;;;3.90;2.70;;;;;;;23.91;50.17;101655.88;5027939;28;20484;-62
2023/09/26 10:11:52;;;;;;;7.40;3.20;;;;;;;23.92;50.29;101651.31;5030742;28;20057;-63
2023/09/26 10:14:22;;;;;;;3.78;2.58;;;;;;;23.92;50.04;101651.31;5029465;28;20053;-63
2023/09/26 10:16:50;;;;;;;5.55;2.60;;;;;;;23.92;50.20;101643.22;5028021;28;20072;-63
2023/09/26 10:19:18;;;;;;;4.10;2.38;;;;;;;23.93;50.13;101642.22;5028462;28;20050;-62
2023/09/26 10:22:19;;;;;;;3.70;2.50;;;;;;;23.93;50.49;101639.50;5029214;28;20049;-63
2023/09/26 10:24:51;;;;;;;4.70;2.65;;;;;;;23.95;50.03;101642.09;5027227;28;20058;-63
2023/09/26 10:27:30;;;;;;;4.53;2.80;;;;;;;23.94;50.45;101643.91;5029659;28;20050;-63
2023/09/26 10:30:01;;;;;;;4.35;2.72;;;;;;;23.95;50.50;101650.19;5029185;28;20046;-62
2023/09/26 10:32:32;;;;;;;4.22;2.63;;;;;;;23.93;50.29;101647.63;5028522;28;20495;-63
2023/09/26 10:35:22;;;;;;;5.80;3.00;;;;;;;23.95;50.01;101645.66;5028601;28;20053;-63
2023/09/26 10:38:18;;;;;;;4.93;2.60;;;;;;;23.95;50.24;101642.94;5029769;28;20053;-60
2023/09/26 10:40:47;;;;;;;4.95;2.88;;;;;;;23.96;50.65;101636.53;5023558;28;20041;-54
2023/09/26 10:43:15;;;;;;;4.07;2.67;;;;;;;24.00;50.45;101632.53;5023180;28;20052;-58
2023/09/26 10:45:46;;;;;;;5.38;2.53;;;;;;;24.06;50.31;101639.22;5028906;28;20068;-56
2023/09/26 10:48:19;;;;;;;4.13;2.42;;;;;;;24.10;50.03;101636.06;5027811;28;20069;-57
2023/09/26 10:50:47;;;;;;;5.32;2.80;;;;;;;24.15;50.20;101630.25;5028251;28;20050;-60
2023/09/26 10:53:14;;;;;;;4.85;2.60;;;;;;;24.17;49.95;101628.25;5029932;28;20049;-59
2023/09/26 10:55:42;;;;;;;3.95;2.47;;;;;;;24.15;50.12;101619.44;5028646;28;20046;-60
2023/09/26 10:58:09;;;;;;;6.82;2.65;;;;;;;24.15;50.25;101619.44;5027163;28;20046;-59
2023/09/26 11:00:37;;;;;;;4.40;2.97;;;;;;;24.17;50.52;101618.28;5027938;28;20038;-61
2023/09/26 11:03:05;;;;;;;3.60;2.45;;;;;;;24.20;50.34;101619.00;5028899;28;20045;-62
2023/09/26 11:05:32;;;;;;;3.88;2.45;;;;;;;24.21;50.06;101609.88;5028567;28;20041;-60
2023/09/26 11:08:01;;;;;;;4.88;3.15;;;;;;;24.20;50.13;101608.19;5026906;28;20053;-61
2023/09/26 11:10:29;;;;;;;4.03;2.58;;;;;;;24.17;50.51;101601.19;5027700;28;20045;-58
2023/09/26 11:12:57;;;;;;;5.05;2.80;;;;;;;24.15;50.40;101609.47;5029365;28;20064;-58
2023/09/26 11:15:27;;;;;;;5.10;3.30;;;;;;;24.13;50.69;101603.31;5028122;28;20041;-58
2023/09/26 11:17:54;;;;;;;6.22;3.17;;;;;;;24.12;50.56;101598.91;5025965;28;20057;-58
2023/09/26 11:20:26;;;;;;;6.05;2.60;;;;;;;24.11;50.69;101590.97;5028093;28;20041;-59
2023/09/26 11:22:53;;;;;;;3.60;2.53;;;;;;;24.10;50.83;101590.09;5028732;28;20060;-58
2023/09/26 11:25:21;;;;;;;3.65;2.38;;;;;;;24.10;50.88;101590.09;5028785;28;20060;-58
2023/09/26 11:27:48;;;;;;;4.30;2.70;;;;;;;24.10;50.80;101590.09;5030004;28;20105;-61
2023/09/26 11:30:18;;;;;;;3.72;2.15;;;;;;;24.09;50.97;101591.09;5028232;28;20412;-61